Iron Gates, Missouri
Current Conditions -  °F | °C
As of 4:53 AM on Wednesday 26 Nov 2014 (Local Time) from KJLN Reporting Station
Overcast Overcast  
Wind Chill: 36°   Ceiling: 11000
Heat Index: 41°   Visibility: 10mi
Dew Point: 24°   Wind: 8mph
Humidity: 51%   Direction: 180°S
Pressure: 29.94"   Gusts: NA
Location:  37.1074°N, 94.5218°W
Report Text: KJLN 261053Z AUTO 18007KT 10SM OVC110 05/M04 A2994 RMK AO2 SLP143 T00501044
Loading
Personal Weather Stations






























Interactive Weather Map New forecast layout! Learn more

10-Day Weather Forecast

Advertisements
Track Severe Weather on mobile